createdAt,value
2022-12-11T00:12:09.900Z,1013.8
2022-12-11T00:27:06.177Z,1013.8
2022-12-11T00:42:02.536Z,1013.8
2022-12-11T00:56:58.695Z,1013.7
2022-12-11T01:11:55.019Z,1013.7
2022-12-11T01:26:51.292Z,1013.7
2022-12-11T01:41:47.425Z,1013.6
2022-12-11T01:56:43.719Z,1013.6
2022-12-11T02:11:40.276Z,1013.5
2022-12-11T02:26:36.585Z,1013.5
2022-12-11T02:41:32.802Z,1013.5
2022-12-11T02:56:29.620Z,1013.4
2022-12-11T03:11:25.641Z,1013.3
2022-12-11T03:26:21.554Z,1013.3
2022-12-11T03:41:17.896Z,1013.3
2022-12-11T03:56:14.036Z,1013.3
2022-12-11T04:11:10.171Z,1013.2
2022-12-11T04:26:06.882Z,1013.2
2022-12-11T04:41:03.322Z,1013.2
2022-12-11T04:56:05.146Z,1013.2
2022-12-11T05:10:55.473Z,1013.1
2022-12-11T05:25:51.338Z,1012.9
2022-12-11T05:40:47.458Z,1012.9
2022-12-11T05:55:43.440Z,1012.9
2022-12-11T06:10:39.643Z,1012.8
2022-12-11T06:25:35.752Z,1012.8
2022-12-11T06:40:32.613Z,1012.7
2022-12-11T06:55:28.434Z,1012.8
2022-12-11T07:10:24.943Z,1012.8
2022-12-11T07:25:21.493Z,1012.8
2022-12-11T07:40:17.657Z,1012.8
2022-12-11T07:55:13.740Z,1012.9
2022-12-11T08:10:10.057Z,1012.9
2022-12-11T08:25:06.552Z,1012.8
2022-12-11T08:40:02.308Z,1012.8
2022-12-11T08:54:58.599Z,1012.8
2022-12-11T09:09:55.194Z,1012.7
2022-12-11T09:24:51.306Z,1012.9
2022-12-11T09:39:47.724Z,1012.8
2022-12-11T09:54:44.071Z,1012.7
2022-12-11T10:09:40.831Z,1012.5
2022-12-11T10:39:33.368Z,1012.3
2022-12-11T10:54:29.337Z,1012.1
2022-12-11T11:09:25.575Z,1012
2022-12-11T11:24:21.933Z,1011.9
2022-12-11T11:39:18.581Z,1011.8
2022-12-11T11:54:14.786Z,1011.7
2022-12-11T12:09:11.611Z,1011.6
2022-12-11T12:24:07.374Z,1011.5
2022-12-11T12:39:03.206Z,1011.5
2022-12-11T12:53:59.394Z,1011.6
2022-12-11T13:08:55.926Z,1011.5
2022-12-11T13:23:52.142Z,1011.5
2022-12-11T13:38:48.846Z,1011.4
2022-12-11T13:53:45.226Z,1011.5
2022-12-11T14:23:36.803Z,1011.6
2022-12-11T14:38:32.409Z,1011.6
2022-12-11T14:53:29.087Z,1011.7
2022-12-11T15:08:25.184Z,1011.8
2022-12-11T15:23:21.308Z,1011.8
2022-12-11T18:07:39.371Z,1011.8
2022-12-11T18:22:35.560Z,1011.8
2022-12-11T18:37:31.290Z,1011.8
2022-12-11T19:07:24.225Z,1011.8
2022-12-11T19:22:20.091Z,1011.8
2022-12-11T19:37:22.173Z,1011.8
2022-12-11T19:52:12.350Z,1011.9
2022-12-11T20:07:07.584Z,1011.9
2022-12-11T20:22:03.354Z,1011.9
2022-12-11T20:36:59.370Z,1012
2022-12-11T20:51:55.627Z,1011.9
2022-12-11T21:06:51.844Z,1011.8
2022-12-11T21:21:48.487Z,1011.8
2022-12-11T21:36:45.057Z,1011.9
2022-12-11T21:51:46.707Z,1011.9
2022-12-11T22:06:37.582Z,1012
2022-12-11T22:21:34.137Z,1012.1
2022-12-11T22:36:30.386Z,1012.2
2022-12-11T22:51:32.283Z,1012.3
2022-12-11T23:06:22.818Z,1012.2
2022-12-11T23:21:18.879Z,1012.2
2022-12-11T23:36:15.279Z,1012.2
2022-12-11T23:51:11.253Z,1012.3
